createdAt,value
2018-04-08T00:00:43.768Z,11.87
2018-04-08T00:05:46.705Z,15.03
2018-04-08T00:10:49.834Z,18.07
2018-04-08T00:15:52.921Z,11.17
2018-04-08T00:20:56.437Z,20.73
2018-04-08T00:25:59.424Z,17.20
2018-04-08T00:31:02.364Z,16.43
2018-04-08T00:36:06.007Z,17.50
2018-04-08T00:41:09.095Z,10.63
2018-04-08T00:46:11.875Z,11.50
2018-04-08T00:51:15.171Z,14.50
2018-04-08T00:56:18.255Z,19.77
2018-04-08T01:01:21.156Z,23.87
2018-04-08T01:06:24.106Z,25.53
2018-04-08T01:11:27.108Z,23.87
2018-04-08T01:16:30.718Z,21.57
2018-04-08T01:21:33.886Z,10.63
2018-04-08T01:26:36.899Z,10.70
2018-04-08T01:31:39.948Z,13.43
2018-04-08T01:36:43.308Z,24.90
2018-04-08T01:41:46.352Z,24.83
2018-04-08T01:46:49.343Z,15.60
2018-04-08T01:51:53.138Z,26.03
2018-04-08T01:56:56.321Z,27.77
2018-04-08T02:02:00.169Z,23.47
2018-04-08T02:07:03.029Z,14.80
2018-04-08T02:12:06.238Z,21.90
2018-04-08T02:17:11.138Z,20.30
2018-04-08T02:22:14.522Z,14.83
2018-04-08T02:27:17.741Z,23.43
2018-04-08T02:32:20.626Z,27.40
2018-04-08T02:37:23.877Z,14.90
2018-04-08T02:42:26.967Z,16.30
2018-04-08T02:47:30.078Z,11.97
2018-04-08T02:52:33.643Z,17.03
2018-04-08T02:57:36.864Z,23.30
2018-04-08T03:02:40.329Z,27.97
2018-04-08T03:07:43.517Z,25.57
2018-04-08T03:12:46.530Z,14.40
2018-04-08T03:17:49.663Z,17.20
2018-04-08T03:22:53.246Z,17.07
2018-04-08T03:27:56.238Z,18.30
2018-04-08T03:32:59.082Z,14.30
2018-04-08T03:38:01.938Z,13.70
2018-04-08T03:43:05.105Z,30.30
2018-04-08T03:48:08.306Z,23.60
2018-04-08T03:53:11.655Z,26.50
2018-04-08T03:58:14.741Z,14.20
2018-04-08T04:03:17.596Z,13.70
2018-04-08T04:08:20.469Z,12.70
2018-04-08T04:13:24.257Z,28.77
2018-04-08T04:18:36.225Z,33.70
2018-04-08T04:25:51.398Z,21.67
2018-04-08T04:30:54.540Z,13.97
2018-04-08T04:35:57.367Z,24.53
2018-04-08T04:41:00.617Z,14.67
2018-04-08T04:46:03.842Z,17.60
2018-04-08T04:51:06.925Z,20.83
2018-04-08T04:56:10.528Z,15.47
2018-04-08T05:01:13.537Z,13.33
2018-04-08T05:06:16.653Z,15.93
2018-04-08T05:11:19.721Z,15.67
2018-04-08T05:16:22.668Z,14.83
2018-04-08T05:21:25.676Z,20.20
2018-04-08T05:26:28.765Z,15.50
2018-04-08T05:31:31.839Z,13.40
2018-04-08T05:36:35.321Z,11.40
2018-04-08T05:41:39.173Z,14.77
2018-04-08T05:46:42.621Z,25.07
2018-04-08T05:51:47.426Z,18.53
2018-04-08T05:56:51.056Z,32.30
2018-04-08T06:01:55.848Z,18.20
2018-04-08T06:06:59.000Z,15.00
2018-04-08T06:12:01.826Z,17.00
2018-04-08T06:17:04.598Z,29.27
2018-04-08T06:22:07.494Z,32.90
2018-04-08T06:27:37.334Z,17.40
2018-04-08T06:32:42.689Z,29.27
2018-04-08T06:37:45.616Z,17.03
2018-04-08T06:42:48.934Z,13.57
2018-04-08T06:47:52.456Z,18.40
2018-04-08T06:52:55.287Z,27.73
2018-04-08T06:57:58.496Z,29.47
2018-04-08T07:03:17.271Z,25.87
2018-04-08T07:08:21.907Z,15.83
2018-04-08T07:13:25.407Z,13.40
2018-04-08T07:18:28.473Z,26.77
2018-04-08T07:23:31.617Z,27.70
2018-04-08T07:28:34.752Z,29.60
2018-04-08T07:33:38.238Z,26.40
2018-04-08T07:38:41.248Z,18.40
2018-04-08T07:43:46.293Z,20.00
2018-04-08T07:48:50.197Z,28.67
2018-04-08T07:53:54.200Z,23.33
2018-04-08T07:58:57.638Z,18.90
2018-04-08T08:04:00.439Z,24.17
2018-04-08T08:09:07.858Z,29.07
2018-04-08T08:14:14.170Z,25.37
2018-04-08T08:19:17.673Z,25.53
2018-04-08T08:24:20.864Z,26.43
2018-04-08T08:29:24.050Z,28.20
2018-04-08T08:34:38.590Z,27.10
2018-04-08T08:39:43.286Z,30.33
2018-04-08T08:45:01.302Z,27.33
2018-04-08T08:50:06.618Z,30.47
2018-04-08T08:55:10.112Z,27.60
2018-04-08T09:00:13.884Z,26.07
2018-04-08T09:05:16.910Z,26.87
2018-04-08T09:10:19.707Z,25.57
2018-04-08T09:15:23.405Z,26.87
2018-04-08T09:20:26.750Z,26.20
2018-04-08T09:25:33.480Z,26.50
2018-04-08T09:30:37.098Z,24.50
2018-04-08T09:35:39.946Z,24.60
2018-04-08T09:40:42.965Z,25.07
2018-04-08T09:45:45.861Z,24.40
2018-04-08T09:50:48.656Z,26.10
2018-04-08T09:55:51.547Z,23.80
2018-04-08T10:00:58.907Z,22.57
2018-04-08T10:06:01.902Z,23.50
2018-04-08T10:11:04.722Z,24.37
2018-04-08T10:16:12.812Z,24.70
2018-04-08T10:21:16.517Z,25.37
2018-04-08T10:26:19.330Z,24.37
2018-04-08T10:31:22.535Z,25.40
2018-04-08T10:36:27.975Z,25.27
2018-04-08T10:41:31.211Z,24.37
2018-04-08T10:46:34.150Z,25.67
2018-04-08T10:51:39.685Z,27.03
2018-04-08T10:56:49.305Z,27.73
2018-04-08T11:01:54.797Z,26.40
2018-04-08T11:06:58.126Z,27.20
2018-04-08T11:12:01.847Z,27.77
2018-04-08T11:17:04.679Z,26.60
2018-04-08T11:22:07.477Z,27.07
2018-04-08T11:27:12.361Z,28.40
2018-04-08T11:32:15.466Z,26.57
2018-04-08T11:37:18.624Z,28.50
2018-04-08T11:42:22.717Z,29.20
2018-04-08T11:47:25.584Z,29.17
2018-04-08T11:52:31.551Z,30.20
2018-04-08T11:57:38.609Z,30.07
2018-04-08T12:02:43.317Z,30.10
2018-04-08T12:07:47.023Z,29.97
2018-04-08T12:12:54.124Z,29.50
2018-04-08T12:17:57.683Z,27.63
2018-04-08T12:23:00.665Z,30.00
2018-04-08T12:28:03.619Z,33.80
2018-04-08T12:33:06.682Z,31.40
2018-04-08T12:38:09.611Z,32.47
2018-04-08T12:43:12.510Z,35.23
2018-04-08T12:48:15.462Z,32.10
2018-04-08T12:53:18.720Z,31.83
2018-04-08T12:58:21.643Z,33.10
2018-04-08T13:03:24.788Z,33.37
2018-04-08T13:08:27.670Z,36.43
2018-04-08T13:13:30.620Z,35.43
2018-04-08T13:18:33.685Z,29.30
2018-04-08T13:23:36.666Z,36.00
2018-04-08T13:28:39.551Z,35.37
2018-04-08T13:33:42.962Z,37.80
2018-04-08T13:38:46.004Z,37.80
2018-04-08T13:43:49.242Z,37.93
2018-04-08T13:48:52.185Z,38.80
2018-04-08T13:53:55.368Z,41.90
2018-04-08T13:58:58.427Z,42.73
2018-04-08T14:04:01.409Z,37.00
2018-04-08T14:09:06.187Z,41.20
2018-04-08T14:14:09.197Z,33.47
2018-04-08T14:19:12.328Z,40.80
2018-04-08T14:24:15.292Z,40.77
2018-04-08T14:29:18.194Z,33.30
2018-04-08T14:34:21.368Z,18.87
2018-04-08T14:39:24.475Z,18.47
2018-04-08T14:44:27.485Z,31.90
2018-04-08T14:49:30.406Z,22.90
2018-04-08T14:54:34.022Z,27.10
2018-04-08T14:59:37.102Z,34.40
2018-04-08T15:04:40.417Z,33.37
2018-04-08T15:09:43.383Z,30.43
2018-04-08T15:14:46.395Z,20.60
2018-04-08T15:19:49.322Z,31.23
2018-04-08T15:24:52.591Z,32.27
2018-04-08T15:29:56.138Z,30.73
2018-04-08T15:34:59.239Z,31.63
2018-04-08T15:40:02.306Z,31.23
2018-04-08T15:45:05.324Z,31.63
2018-04-08T15:50:08.555Z,32.30
2018-04-08T15:55:12.130Z,32.73
2018-04-08T16:00:15.098Z,15.90
2018-04-08T16:05:18.308Z,29.33
2018-04-08T16:10:21.330Z,31.63
2018-04-08T16:15:24.416Z,33.20
2018-04-08T16:20:27.737Z,35.70
2018-04-08T16:25:30.792Z,33.10
2018-04-08T16:30:41.019Z,34.23
2018-04-08T16:35:45.445Z,34.93
2018-04-08T16:40:55.215Z,34.27
2018-04-08T16:46:00.338Z,34.80
2018-04-08T16:51:03.361Z,34.90
2018-04-08T16:56:06.566Z,36.50
2018-04-08T17:01:09.840Z,28.93
2018-04-08T17:06:13.183Z,36.80
2018-04-08T17:11:16.287Z,24.17
2018-04-08T17:16:19.572Z,32.70
2018-04-08T17:21:22.761Z,33.07
2018-04-08T17:26:28.244Z,34.97
2018-04-08T17:31:31.406Z,28.17
2018-04-08T17:36:37.126Z,32.53
2018-04-08T17:41:45.404Z,39.07
2018-04-08T17:46:49.521Z,37.50
2018-04-08T17:51:53.013Z,36.10
2018-04-08T17:56:56.747Z,39.20
2018-04-08T18:01:59.998Z,21.30
2018-04-08T18:07:04.495Z,32.20
2018-04-08T18:12:08.466Z,39.63
2018-04-08T18:17:12.037Z,33.70
2018-04-08T18:22:15.277Z,38.23
2018-04-08T18:27:18.419Z,41.20
2018-04-08T18:32:21.465Z,28.30
2018-04-08T18:37:24.720Z,36.20
2018-04-08T18:42:27.776Z,25.97
2018-04-08T18:47:30.834Z,19.83
2018-04-08T18:52:33.926Z,26.87
2018-04-08T18:57:37.075Z,20.80
2018-04-08T19:02:40.157Z,20.60
2018-04-08T19:07:43.724Z,25.80
2018-04-08T19:12:48.133Z,24.07
2018-04-08T19:17:56.208Z,24.50
2018-04-08T19:22:59.556Z,35.73
2018-04-08T19:28:02.746Z,27.10
2018-04-08T19:33:06.491Z,41.23
2018-04-08T19:38:10.108Z,41.90
2018-04-08T19:43:13.158Z,39.50
2018-04-08T19:48:16.233Z,32.30
2018-04-08T19:53:19.446Z,30.03
2018-04-08T19:58:23.100Z,42.43
2018-04-08T20:03:28.004Z,27.83
2018-04-08T20:08:31.475Z,42.13
2018-04-08T20:13:34.553Z,40.73
2018-04-08T20:18:38.214Z,33.43
2018-04-08T20:23:41.483Z,24.20
2018-04-08T20:28:45.028Z,36.83
2018-04-08T20:33:48.482Z,41.50
2018-04-08T20:38:53.527Z,37.17
2018-04-08T20:43:57.201Z,44.87
2018-04-08T20:49:00.844Z,42.97
2018-04-08T20:54:04.321Z,43.97
2018-04-08T20:59:07.323Z,39.83
2018-04-08T21:04:10.635Z,32.00
2018-04-08T21:09:13.835Z,34.80
2018-04-08T21:14:16.846Z,28.97
2018-04-08T21:19:20.031Z,23.40
2018-04-08T21:24:23.405Z,18.20
2018-04-08T21:29:26.500Z,22.33
2018-04-08T21:34:29.465Z,18.40
2018-04-08T21:39:32.573Z,18.17
2018-04-08T21:44:35.730Z,18.17
2018-04-08T21:49:38.616Z,27.43
2018-04-08T21:54:41.731Z,37.13
2018-04-08T21:59:45.027Z,22.93
2018-04-08T22:04:47.879Z,40.60
2018-04-08T22:09:50.693Z,18.63
2018-04-08T22:14:53.753Z,18.77
2018-04-08T22:19:56.559Z,19.63
2018-04-08T22:24:59.456Z,19.10
2018-04-08T22:30:02.286Z,24.57
2018-04-08T22:35:05.912Z,18.60
2018-04-08T22:40:08.820Z,19.67
2018-04-08T22:45:11.668Z,18.47
2018-04-08T22:50:14.494Z,42.50
2018-04-08T22:55:17.324Z,27.67
2018-04-08T23:00:27.497Z,38.30
2018-04-08T23:05:30.342Z,26.93
2018-04-08T23:10:33.597Z,28.77
2018-04-08T23:15:36.384Z,23.37
2018-04-08T23:20:39.503Z,21.47
2018-04-08T23:25:42.678Z,26.03
2018-04-08T23:30:52.137Z,26.50
2018-04-08T23:35:55.097Z,19.33
2018-04-08T23:40:58.487Z,20.87
2018-04-08T23:46:02.236Z,33.90
2018-04-08T23:51:05.900Z,52.47
2018-04-08T23:56:09.229Z,24.70
